sensor_id;sensor_type;location;lat;lon;timestamp;P1;durP1;ratioP1;P2;durP2;ratioP2
21593;SDS011;10959;51.328;7.322;2022-12-29T00:01:27;1.20;;;0.90;;
21593;SDS011;10959;51.328;7.322;2022-12-29T00:03:53;1.10;;;1.10;;
21593;SDS011;10959;51.328;7.322;2022-12-29T00:06:20;0.87;;;0.87;;
21593;SDS011;10959;51.328;7.322;2022-12-29T00:08:47;2.67;;;1.53;;
21593;SDS011;10959;51.328;7.322;2022-12-29T00:11:15;1.37;;;1.17;;
21593;SDS011;10959;51.328;7.322;2022-12-29T00:13:43;0.90;;;0.90;;
21593;SDS011;10959;51.328;7.322;2022-12-29T00:16:28;1.83;;;1.00;;
21593;SDS011;10959;51.328;7.322;2022-12-29T00:18:55;1.07;;;0.80;;
21593;SDS011;10959;51.328;7.322;2022-12-29T00:21:22;0.93;;;0.80;;
21593;SDS011;10959;51.328;7.322;2022-12-29T00:24:09;1.00;;;0.70;;
21593;SDS011;10959;51.328;7.322;2022-12-29T00:26:58;0.63;;;0.63;;
21593;SDS011;10959;51.328;7.322;2022-12-29T00:29:51;0.80;;;0.70;;
21593;SDS011;10959;51.328;7.322;2022-12-29T00:32:35;0.80;;;0.80;;
21593;SDS011;10959;51.328;7.322;2022-12-29T00:35:23;0.60;;;0.50;;
21593;SDS011;10959;51.328;7.322;2022-12-29T00:37:52;0.47;;;0.47;;
21593;SDS011;10959;51.328;7.322;2022-12-29T00:40:37;0.50;;;0.50;;
21593;SDS011;10959;51.328;7.322;2022-12-29T00:43:22;1.03;;;0.73;;
21593;SDS011;10959;51.328;7.322;2022-12-29T00:46:06;0.77;;;0.60;;
21593;SDS011;10959;51.328;7.322;2022-12-29T00:48:33;0.73;;;0.50;;
21593;SDS011;10959;51.328;7.322;2022-12-29T00:51:17;1.13;;;0.50;;
21593;SDS011;10959;51.328;7.322;2022-12-29T00:53:44;1.40;;;0.43;;
21593;SDS011;10959;51.328;7.322;2022-12-29T00:56:10;0.60;;;0.50;;
21593;SDS011;10959;51.328;7.322;2022-12-29T00:58:38;0.50;;;0.40;;
21593;SDS011;10959;51.328;7.322;2022-12-29T01:01:05;0.70;;;0.60;;
21593;SDS011;10959;51.328;7.322;2022-12-29T01:03:32;1.07;;;0.40;;
21593;SDS011;10959;51.328;7.322;2022-12-29T01:06:00;0.40;;;0.40;;
21593;SDS011;10959;51.328;7.322;2022-12-29T01:08:27;0.30;;;0.30;;
21593;SDS011;10959;51.328;7.322;2022-12-29T01:10:57;0.50;;;0.50;;
21593;SDS011;10959;51.328;7.322;2022-12-29T01:13:23;0.67;;;0.47;;
21593;SDS011;10959;51.328;7.322;2022-12-29T01:15:51;0.37;;;0.33;;
21593;SDS011;10959;51.328;7.322;2022-12-29T01:18:19;0.30;;;0.30;;
21593;SDS011;10959;51.328;7.322;2022-12-29T01:20:46;0.77;;;0.50;;
21593;SDS011;10959;51.328;7.322;2022-12-29T01:23:13;0.77;;;0.50;;
21593;SDS011;10959;51.328;7.322;2022-12-29T01:25:39;0.60;;;0.37;;
21593;SDS011;10959;51.328;7.322;2022-12-29T01:28:06;1.47;;;0.50;;
21593;SDS011;10959;51.328;7.322;2022-12-29T01:30:33;0.30;;;0.30;;
21593;SDS011;10959;51.328;7.322;2022-12-29T01:33:01;0.40;;;0.40;;
21593;SDS011;10959;51.328;7.322;2022-12-29T01:35:28;1.63;;;0.50;;
21593;SDS011;10959;51.328;7.322;2022-12-29T01:37:54;0.40;;;0.40;;
21593;SDS011;10959;51.328;7.322;2022-12-29T01:40:21;0.33;;;0.30;;
21593;SDS011;10959;51.328;7.322;2022-12-29T01:42:48;1.43;;;0.30;;
21593;SDS011;10959;51.328;7.322;2022-12-29T01:45:14;0.20;;;0.20;;
21593;SDS011;10959;51.328;7.322;2022-12-29T01:47:43;0.40;;;0.40;;
21593;SDS011;10959;51.328;7.322;2022-12-29T01:50:12;0.30;;;0.30;;
21593;SDS011;10959;51.328;7.322;2022-12-29T01:52:43;0.60;;;0.30;;
21593;SDS011;10959;51.328;7.322;2022-12-29T01:55:26;0.50;;;0.50;;
21593;SDS011;10959;51.328;7.322;2022-12-29T01:57:55;0.50;;;0.47;;
21593;SDS011;10959;51.328;7.322;2022-12-29T02:00:25;0.40;;;0.40;;
21593;SDS011;10959;51.328;7.322;2022-12-29T02:02:53;0.30;;;0.30;;
21593;SDS011;10959;51.328;7.322;2022-12-29T02:05:23;0.33;;;0.33;;
21593;SDS011;10959;51.328;7.322;2022-12-29T02:07:53;0.30;;;0.30;;
21593;SDS011;10959;51.328;7.322;2022-12-29T02:10:20;0.30;;;0.30;;
21593;SDS011;10959;51.328;7.322;2022-12-29T02:12:48;1.80;;;0.30;;
21593;SDS011;10959;51.328;7.322;2022-12-29T02:15:15;0.37;;;0.37;;
21593;SDS011;10959;51.328;7.322;2022-12-29T02:17:47;0.30;;;0.23;;
21593;SDS011;10959;51.328;7.322;2022-12-29T02:20:34;0.27;;;0.27;;
21593;SDS011;10959;51.328;7.322;2022-12-29T02:23:17;0.57;;;0.33;;
21593;SDS011;10959;51.328;7.322;2022-12-29T02:26:04;0.43;;;0.30;;
21593;SDS011;10959;51.328;7.322;2022-12-29T02:28:49;1.17;;;0.30;;
21593;SDS011;10959;51.328;7.322;2022-12-29T02:31:30;0.50;;;0.40;;
21593;SDS011;10959;51.328;7.322;2022-12-29T02:34:06;0.87;;;0.40;;
21593;SDS011;10959;51.328;7.322;2022-12-29T02:36:45;0.30;;;0.30;;
21593;SDS011;10959;51.328;7.322;2022-12-29T02:39:19;0.40;;;0.30;;
21593;SDS011;10959;51.328;7.322;2022-12-29T02:41:55;1.43;;;0.57;;
21593;SDS011;10959;51.328;7.322;2022-12-29T02:44:30;0.73;;;0.40;;
21593;SDS011;10959;51.328;7.322;2022-12-29T02:47:07;0.90;;;0.40;;
21593;SDS011;10959;51.328;7.322;2022-12-29T02:49:42;0.30;;;0.30;;
21593;SDS011;10959;51.328;7.322;2022-12-29T02:52:15;0.83;;;0.30;;
21593;SDS011;10959;51.328;7.322;2022-12-29T02:54:44;0.80;;;0.40;;
21593;SDS011;10959;51.328;7.322;2022-12-29T02:57:10;1.73;;;0.50;;
21593;SDS011;10959;51.328;7.322;2022-12-29T02:59:38;0.90;;;0.50;;
21593;SDS011;10959;51.328;7.322;2022-12-29T03:02:10;0.43;;;0.40;;
21593;SDS011;10959;51.328;7.322;2022-12-29T03:04:54;0.90;;;0.33;;
21593;SDS011;10959;51.328;7.322;2022-12-29T03:07:32;1.23;;;0.40;;
21593;SDS011;10959;51.328;7.322;2022-12-29T03:10:11;1.07;;;0.53;;
21593;SDS011;10959;51.328;7.322;2022-12-29T03:12:46;2.00;;;0.60;;
21593;SDS011;10959;51.328;7.322;2022-12-29T03:15:34;0.67;;;0.43;;
21593;SDS011;10959;51.328;7.322;2022-12-29T03:18:25;0.87;;;0.40;;
21593;SDS011;10959;51.328;7.322;2022-12-29T03:21:02;1.67;;;0.50;;
21593;SDS011;10959;51.328;7.322;2022-12-29T03:23:31;0.60;;;0.40;;
21593;SDS011;10959;51.328;7.322;2022-12-29T03:26:01;0.80;;;0.33;;
21593;SDS011;10959;51.328;7.322;2022-12-29T03:28:31;3.00;;;0.60;;
21593;SDS011;10959;51.328;7.322;2022-12-29T03:31:03;1.30;;;0.50;;
21593;SDS011;10959;51.328;7.322;2022-12-29T03:33:34;1.03;;;0.70;;
21593;SDS011;10959;51.328;7.322;2022-12-29T03:36:03;0.70;;;0.60;;
21593;SDS011;10959;51.328;7.322;2022-12-29T03:38:33;1.43;;;0.60;;
21593;SDS011;10959;51.328;7.322;2022-12-29T03:41:05;1.37;;;0.47;;
21593;SDS011;10959;51.328;7.322;2022-12-29T03:43:34;0.80;;;0.30;;
21593;SDS011;10959;51.328;7.322;2022-12-29T03:46:01;1.77;;;0.60;;
21593;SDS011;10959;51.328;7.322;2022-12-29T03:48:27;1.73;;;0.70;;
21593;SDS011;10959;51.328;7.322;2022-12-29T03:50:55;0.93;;;0.50;;
21593;SDS011;10959;51.328;7.322;2022-12-29T03:53:22;0.87;;;0.50;;
21593;SDS011;10959;51.328;7.322;2022-12-29T03:55:48;0.90;;;0.70;;
21593;SDS011;10959;51.328;7.322;2022-12-29T03:58:15;0.57;;;0.50;;
21593;SDS011;10959;51.328;7.322;2022-12-29T04:00:41;1.00;;;0.50;;
21593;SDS011;10959;51.328;7.322;2022-12-29T04:03:08;0.63;;;0.50;;
21593;SDS011;10959;51.328;7.322;2022-12-29T04:05:34;0.53;;;0.50;;
21593;SDS011;10959;51.328;7.322;2022-12-29T04:08:02;0.50;;;0.50;;
21593;SDS011;10959;51.328;7.322;2022-12-29T04:10:29;0.47;;;0.30;;
21593;SDS011;10959;51.328;7.322;2022-12-29T04:12:55;0.33;;;0.30;;
21593;SDS011;10959;51.328;7.322;2022-12-29T04:15:22;0.60;;;0.43;;
21593;SDS011;10959;51.328;7.322;2022-12-29T04:17:49;0.83;;;0.40;;
21593;SDS011;10959;51.328;7.322;2022-12-29T04:20:15;0.83;;;0.40;;
21593;SDS011;10959;51.328;7.322;2022-12-29T04:22:59;1.43;;;0.43;;
21593;SDS011;10959;51.328;7.322;2022-12-29T04:25:27;0.57;;;0.40;;
21593;SDS011;10959;51.328;7.322;2022-12-29T04:27:54;0.70;;;0.60;;
21593;SDS011;10959;51.328;7.322;2022-12-29T04:30:20;0.87;;;0.50;;
21593;SDS011;10959;51.328;7.322;2022-12-29T04:32:47;0.80;;;0.40;;
21593;SDS011;10959;51.328;7.322;2022-12-29T04:35:13;0.70;;;0.50;;
21593;SDS011;10959;51.328;7.322;2022-12-29T04:37:40;0.60;;;0.40;;
21593;SDS011;10959;51.328;7.322;2022-12-29T04:40:07;0.60;;;0.50;;
21593;SDS011;10959;51.328;7.322;2022-12-29T04:42:35;1.97;;;0.40;;
21593;SDS011;10959;51.328;7.322;2022-12-29T04:45:02;1.10;;;0.37;;
21593;SDS011;10959;51.328;7.322;2022-12-29T04:47:29;0.77;;;0.50;;
21593;SDS011;10959;51.328;7.322;2022-12-29T04:49:55;0.83;;;0.50;;
21593;SDS011;10959;51.328;7.322;2022-12-29T04:52:21;0.80;;;0.53;;
21593;SDS011;10959;51.328;7.322;2022-12-29T04:54:48;1.03;;;0.50;;
21593;SDS011;10959;51.328;7.322;2022-12-29T04:57:14;1.00;;;0.43;;
21593;SDS011;10959;51.328;7.322;2022-12-29T04:59:42;1.27;;;0.60;;
21593;SDS011;10959;51.328;7.322;2022-12-29T05:02:09;0.83;;;0.43;;
21593;SDS011;10959;51.328;7.322;2022-12-29T05:04:35;0.63;;;0.57;;
21593;SDS011;10959;51.328;7.322;2022-12-29T05:07:02;1.23;;;0.53;;
21593;SDS011;10959;51.328;7.322;2022-12-29T05:09:28;1.63;;;0.40;;
21593;SDS011;10959;51.328;7.322;2022-12-29T05:11:55;0.40;;;0.40;;
21593;SDS011;10959;51.328;7.322;2022-12-29T05:14:21;0.70;;;0.60;;
21593;SDS011;10959;51.328;7.322;2022-12-29T05:16:49;0.70;;;0.50;;
21593;SDS011;10959;51.328;7.322;2022-12-29T05:19:16;0.93;;;0.50;;
21593;SDS011;10959;51.328;7.322;2022-12-29T05:21:43;1.73;;;0.60;;
21593;SDS011;10959;51.328;7.322;2022-12-29T05:24:09;0.63;;;0.40;;
21593;SDS011;10959;51.328;7.322;2022-12-29T05:26:36;2.40;;;0.60;;
21593;SDS011;10959;51.328;7.322;2022-12-29T05:29:02;0.70;;;0.50;;
21593;SDS011;10959;51.328;7.322;2022-12-29T05:31:29;0.50;;;0.30;;
21593;SDS011;10959;51.328;7.322;2022-12-29T05:33:57;0.30;;;0.30;;
21593;SDS011;10959;51.328;7.322;2022-12-29T05:36:23;0.80;;;0.43;;
21593;SDS011;10959;51.328;7.322;2022-12-29T05:38:50;1.00;;;0.40;;
21593;SDS011;10959;51.328;7.322;2022-12-29T05:41:16;0.40;;;0.40;;
21593;SDS011;10959;51.328;7.322;2022-12-29T05:43:43;0.93;;;0.43;;
21593;SDS011;10959;51.328;7.322;2022-12-29T05:46:10;0.77;;;0.40;;
21593;SDS011;10959;51.328;7.322;2022-12-29T05:48:36;1.20;;;0.53;;
21593;SDS011;10959;51.328;7.322;2022-12-29T05:51:04;0.70;;;0.40;;
21593;SDS011;10959;51.328;7.322;2022-12-29T05:53:31;0.67;;;0.40;;
21593;SDS011;10959;51.328;7.322;2022-12-29T05:55:57;0.93;;;0.50;;
21593;SDS011;10959;51.328;7.322;2022-12-29T05:58:24;1.33;;;0.67;;
21593;SDS011;10959;51.328;7.322;2022-12-29T06:00:50;1.27;;;0.50;;
21593;SDS011;10959;51.328;7.322;2022-12-29T06:03:17;0.30;;;0.30;;
21593;SDS011;10959;51.328;7.322;2022-12-29T06:05:44;1.23;;;0.40;;
21593;SDS011;10959;51.328;7.322;2022-12-29T06:08:12;1.30;;;0.63;;
21593;SDS011;10959;51.328;7.322;2022-12-29T06:10:38;1.17;;;0.50;;
21593;SDS011;10959;51.328;7.322;2022-12-29T06:13:05;1.13;;;0.50;;
21593;SDS011;10959;51.328;7.322;2022-12-29T06:15:32;1.63;;;0.60;;
21593;SDS011;10959;51.328;7.322;2022-12-29T06:17:58;1.33;;;0.53;;
21593;SDS011;10959;51.328;7.322;2022-12-29T06:20:24;1.17;;;0.50;;
21593;SDS011;10959;51.328;7.322;2022-12-29T06:22:51;1.30;;;0.40;;
21593;SDS011;10959;51.328;7.322;2022-12-29T06:25:19;0.77;;;0.50;;
21593;SDS011;10959;51.328;7.322;2022-12-29T06:27:45;1.30;;;0.40;;
21593;SDS011;10959;51.328;7.322;2022-12-29T06:30:12;1.90;;;0.60;;
21593;SDS011;10959;51.328;7.322;2022-12-29T06:32:39;6.43;;;0.60;;
21593;SDS011;10959;51.328;7.322;2022-12-29T06:35:06;2.57;;;0.50;;
21593;SDS011;10959;51.328;7.322;2022-12-29T06:37:33;0.73;;;0.40;;
21593;SDS011;10959;51.328;7.322;2022-12-29T06:40:00;0.70;;;0.40;;
21593;SDS011;10959;51.328;7.322;2022-12-29T06:42:28;1.00;;;0.50;;
21593;SDS011;10959;51.328;7.322;2022-12-29T06:44:54;1.40;;;0.50;;
21593;SDS011;10959;51.328;7.322;2022-12-29T06:47:23;3.53;;;0.70;;
21593;SDS011;10959;51.328;7.322;2022-12-29T06:49:50;0.67;;;0.50;;
21593;SDS011;10959;51.328;7.322;2022-12-29T06:52:16;0.63;;;0.40;;
21593;SDS011;10959;51.328;7.322;2022-12-29T06:54:42;1.90;;;0.80;;
21593;SDS011;10959;51.328;7.322;2022-12-29T06:57:09;1.20;;;0.50;;
21593;SDS011;10959;51.328;7.322;2022-12-29T06:59:37;0.87;;;0.40;;
21593;SDS011;10959;51.328;7.322;2022-12-29T07:02:03;0.60;;;0.40;;
21593;SDS011;10959;51.328;7.322;2022-12-29T07:04:30;0.70;;;0.40;;
21593;SDS011;10959;51.328;7.322;2022-12-29T07:06:56;1.27;;;0.60;;
21593;SDS011;10959;51.328;7.322;2022-12-29T07:09:23;1.13;;;0.40;;
21593;SDS011;10959;51.328;7.322;2022-12-29T07:11:49;1.53;;;0.47;;
21593;SDS011;10959;51.328;7.322;2022-12-29T07:14:16;1.07;;;0.47;;
21593;SDS011;10959;51.328;7.322;2022-12-29T07:16:43;1.47;;;0.60;;
21593;SDS011;10959;51.328;7.322;2022-12-29T07:19:10;1.40;;;0.70;;
21593;SDS011;10959;51.328;7.322;2022-12-29T07:21:36;1.40;;;0.53;;
21593;SDS011;10959;51.328;7.322;2022-12-29T07:24:03;1.53;;;0.63;;
21593;SDS011;10959;51.328;7.322;2022-12-29T07:26:30;2.00;;;0.80;;
21593;SDS011;10959;51.328;7.322;2022-12-29T07:28:57;2.07;;;0.70;;
21593;SDS011;10959;51.328;7.322;2022-12-29T07:31:23;2.00;;;0.60;;
21593;SDS011;10959;51.328;7.322;2022-12-29T07:33:51;0.97;;;0.60;;
21593;SDS011;10959;51.328;7.322;2022-12-29T07:36:17;2.70;;;0.60;;
21593;SDS011;10959;51.328;7.322;2022-12-29T07:38:44;2.97;;;0.73;;
21593;SDS011;10959;51.328;7.322;2022-12-29T07:41:10;1.90;;;0.60;;
21593;SDS011;10959;51.328;7.322;2022-12-29T07:43:37;1.43;;;0.50;;
21593;SDS011;10959;51.328;7.322;2022-12-29T07:46:03;3.13;;;0.60;;
21593;SDS011;10959;51.328;7.322;2022-12-29T07:48:30;1.20;;;0.70;;
21593;SDS011;10959;51.328;7.322;2022-12-29T07:50:59;1.43;;;0.70;;
21593;SDS011;10959;51.328;7.322;2022-12-29T07:53:26;1.57;;;0.60;;
21593;SDS011;10959;51.328;7.322;2022-12-29T07:55:53;1.87;;;0.60;;
21593;SDS011;10959;51.328;7.322;2022-12-29T07:58:19;2.77;;;1.00;;
21593;SDS011;10959;51.328;7.322;2022-12-29T08:00:45;1.80;;;0.70;;
21593;SDS011;10959;51.328;7.322;2022-12-29T08:03:12;3.03;;;0.63;;
21593;SDS011;10959;51.328;7.322;2022-12-29T08:05:38;1.37;;;0.60;;
21593;SDS011;10959;51.328;7.322;2022-12-29T08:08:06;2.27;;;0.73;;
21593;SDS011;10959;51.328;7.322;2022-12-29T08:10:33;3.20;;;0.87;;
21593;SDS011;10959;51.328;7.322;2022-12-29T08:12:59;1.93;;;0.60;;
21593;SDS011;10959;51.328;7.322;2022-12-29T08:15:26;1.63;;;0.80;;
21593;SDS011;10959;51.328;7.322;2022-12-29T08:17:52;2.87;;;1.00;;
21593;SDS011;10959;51.328;7.322;2022-12-29T08:20:19;3.10;;;0.70;;
21593;SDS011;10959;51.328;7.322;2022-12-29T08:22:45;2.10;;;0.80;;
21593;SDS011;10959;51.328;7.322;2022-12-29T08:25:13;2.27;;;0.67;;
21593;SDS011;10959;51.328;7.322;2022-12-29T08:27:40;2.83;;;0.80;;
21593;SDS011;10959;51.328;7.322;2022-12-29T08:30:07;4.13;;;1.03;;
21593;SDS011;10959;51.328;7.322;2022-12-29T08:32:34;1.93;;;0.93;;
21593;SDS011;10959;51.328;7.322;2022-12-29T08:35:01;2.23;;;1.00;;
21593;SDS011;10959;51.328;7.322;2022-12-29T08:37:27;1.87;;;0.67;;
21593;SDS011;10959;51.328;7.322;2022-12-29T08:39:54;2.43;;;0.90;;
21593;SDS011;10959;51.328;7.322;2022-12-29T08:42:21;2.33;;;0.90;;
21593;SDS011;10959;51.328;7.322;2022-12-29T08:44:48;2.43;;;0.80;;
21593;SDS011;10959;51.328;7.322;2022-12-29T08:47:14;1.27;;;0.90;;
21593;SDS011;10959;51.328;7.322;2022-12-29T08:49:41;2.60;;;0.70;;
21593;SDS011;10959;51.328;7.322;2022-12-29T08:52:07;2.90;;;1.07;;
21593;SDS011;10959;51.328;7.322;2022-12-29T08:54:34;2.53;;;0.63;;
21593;SDS011;10959;51.328;7.322;2022-12-29T08:57:00;3.77;;;1.00;;
21593;SDS011;10959;51.328;7.322;2022-12-29T08:59:28;2.33;;;1.20;;
21593;SDS011;10959;51.328;7.322;2022-12-29T09:01:54;2.03;;;1.20;;
21593;SDS011;10959;51.328;7.322;2022-12-29T09:04:21;1.70;;;1.00;;
21593;SDS011;10959;51.328;7.322;2022-12-29T09:06:48;2.23;;;0.80;;
21593;SDS011;10959;51.328;7.322;2022-12-29T09:09:15;4.20;;;1.10;;
21593;SDS011;10959;51.328;7.322;2022-12-29T09:11:42;4.20;;;1.37;;
21593;SDS011;10959;51.328;7.322;2022-12-29T09:14:08;1.67;;;0.83;;
21593;SDS011;10959;51.328;7.322;2022-12-29T09:16:36;3.50;;;1.60;;
21593;SDS011;10959;51.328;7.322;2022-12-29T09:19:03;5.30;;;1.20;;
21593;SDS011;10959;51.328;7.322;2022-12-29T09:21:30;1.83;;;0.83;;
21593;SDS011;10959;51.328;7.322;2022-12-29T09:23:57;1.67;;;0.90;;
21593;SDS011;10959;51.328;7.322;2022-12-29T09:26:23;2.60;;;1.10;;
21593;SDS011;10959;51.328;7.322;2022-12-29T09:28:50;3.60;;;1.20;;
21593;SDS011;10959;51.328;7.322;2022-12-29T09:31:16;2.73;;;1.13;;
21593;SDS011;10959;51.328;7.322;2022-12-29T09:33:44;1.87;;;0.90;;
21593;SDS011;10959;51.328;7.322;2022-12-29T09:36:11;1.70;;;1.03;;
21593;SDS011;10959;51.328;7.322;2022-12-29T09:38:38;6.67;;;1.67;;
21593;SDS011;10959;51.328;7.322;2022-12-29T09:41:05;4.03;;;1.60;;
21593;SDS011;10959;51.328;7.322;2022-12-29T09:46:35;4.27;;;1.30;;
21593;SDS011;10959;51.328;7.322;2022-12-29T09:49:08;4.40;;;1.40;;
21593;SDS011;10959;51.328;7.322;2022-12-29T09:51:44;3.53;;;1.40;;
21593;SDS011;10959;51.328;7.322;2022-12-29T09:54:19;5.87;;;1.53;;
21593;SDS011;10959;51.328;7.322;2022-12-29T09:56:52;3.87;;;1.30;;
21593;SDS011;10959;51.328;7.322;2022-12-29T09:59:19;4.77;;;1.17;;
21593;SDS011;10959;51.328;7.322;2022-12-29T10:01:51;5.90;;;1.10;;
21593;SDS011;10959;51.328;7.322;2022-12-29T10:04:26;4.23;;;1.37;;
21593;SDS011;10959;51.328;7.322;2022-12-29T10:06:54;4.50;;;1.00;;
21593;SDS011;10959;51.328;7.322;2022-12-29T10:09:29;5.00;;;1.53;;
21593;SDS011;10959;51.328;7.322;2022-12-29T10:12:03;2.63;;;1.00;;
21593;SDS011;10959;51.328;7.322;2022-12-29T10:14:45;4.47;;;1.30;;
21593;SDS011;10959;51.328;7.322;2022-12-29T10:17:24;4.93;;;1.07;;
21593;SDS011;10959;51.328;7.322;2022-12-29T10:22:57;3.53;;;1.27;;
21593;SDS011;10959;51.328;7.322;2022-12-29T10:25:37;4.40;;;1.43;;
21593;SDS011;10959;51.328;7.322;2022-12-29T10:28:11;3.17;;;1.00;;
21593;SDS011;10959;51.328;7.322;2022-12-29T10:30:45;2.93;;;0.93;;
21593;SDS011;10959;51.328;7.322;2022-12-29T10:33:14;6.13;;;1.37;;
21593;SDS011;10959;51.328;7.322;2022-12-29T10:35:47;6.73;;;2.07;;
21593;SDS011;10959;51.328;7.322;2022-12-29T10:38:15;4.43;;;1.23;;
21593;SDS011;10959;51.328;7.322;2022-12-29T10:40:49;4.60;;;1.10;;
21593;SDS011;10959;51.328;7.322;2022-12-29T10:43:21;4.03;;;1.13;;
21593;SDS011;10959;51.328;7.322;2022-12-29T10:45:51;3.53;;;1.00;;
21593;SDS011;10959;51.328;7.322;2022-12-29T10:48:20;5.57;;;1.40;;
21593;SDS011;10959;51.328;7.322;2022-12-29T10:50:50;3.73;;;0.90;;
21593;SDS011;10959;51.328;7.322;2022-12-29T10:53:20;4.20;;;1.13;;
21593;SDS011;10959;51.328;7.322;2022-12-29T10:55:50;6.70;;;1.37;;
21593;SDS011;10959;51.328;7.322;2022-12-29T10:58:17;2.70;;;1.07;;
21593;SDS011;10959;51.328;7.322;2022-12-29T11:00:48;4.00;;;1.53;;
21593;SDS011;10959;51.328;7.322;2022-12-29T11:06:10;6.13;;;1.40;;
21593;SDS011;10959;51.328;7.322;2022-12-29T11:08:46;5.00;;;1.10;;
21593;SDS011;10959;51.328;7.322;2022-12-29T11:11:21;3.13;;;1.40;;
21593;SDS011;10959;51.328;7.322;2022-12-29T11:13:54;2.90;;;1.13;;
21593;SDS011;10959;51.328;7.322;2022-12-29T11:16:30;4.97;;;1.30;;
21593;SDS011;10959;51.328;7.322;2022-12-29T11:18:59;6.90;;;1.77;;
21593;SDS011;10959;51.328;7.322;2022-12-29T11:21:30;2.67;;;1.17;;
21593;SDS011;10959;51.328;7.322;2022-12-29T11:23:59;5.57;;;1.03;;
21593;SDS011;10959;51.328;7.322;2022-12-29T11:26:28;6.00;;;1.23;;
21593;SDS011;10959;51.328;7.322;2022-12-29T11:31:50;4.93;;;1.40;;
21593;SDS011;10959;51.328;7.322;2022-12-29T11:34:20;5.00;;;1.60;;
21593;SDS011;10959;51.328;7.322;2022-12-29T11:36:50;5.00;;;1.57;;
21593;SDS011;10959;51.328;7.322;2022-12-29T11:39:24;5.53;;;1.33;;
21593;SDS011;10959;51.328;7.322;2022-12-29T11:41:54;4.67;;;1.60;;
21593;SDS011;10959;51.328;7.322;2022-12-29T11:44:21;5.97;;;1.53;;
21593;SDS011;10959;51.328;7.322;2022-12-29T11:46:48;4.23;;;1.10;;
21593;SDS011;10959;51.328;7.322;2022-12-29T11:49:18;6.73;;;1.73;;
21593;SDS011;10959;51.328;7.322;2022-12-29T11:51:48;3.27;;;1.10;;
21593;SDS011;10959;51.328;7.322;2022-12-29T11:54:21;4.03;;;1.27;;
21593;SDS011;10959;51.328;7.322;2022-12-29T11:56:50;7.40;;;1.73;;
21593;SDS011;10959;51.328;7.322;2022-12-29T11:59:29;5.10;;;1.20;;
21593;SDS011;10959;51.328;7.322;2022-12-29T12:02:10;4.63;;;1.03;;
21593;SDS011;10959;51.328;7.322;2022-12-29T12:04:48;4.20;;;1.20;;
21593;SDS011;10959;51.328;7.322;2022-12-29T12:07:19;4.87;;;1.40;;
21593;SDS011;10959;51.328;7.322;2022-12-29T12:09:50;3.83;;;1.00;;
21593;SDS011;10959;51.328;7.322;2022-12-29T12:12:21;5.37;;;1.13;;
21593;SDS011;10959;51.328;7.322;2022-12-29T12:14:51;5.37;;;1.50;;
21593;SDS011;10959;51.328;7.322;2022-12-29T12:17:25;4.47;;;1.17;;
21593;SDS011;10959;51.328;7.322;2022-12-29T12:20:02;7.27;;;1.40;;
21593;SDS011;10959;51.328;7.322;2022-12-29T12:22:38;5.00;;;1.30;;
21593;SDS011;10959;51.328;7.322;2022-12-29T12:25:09;6.87;;;3.10;;
21593;SDS011;10959;51.328;7.322;2022-12-29T12:27:41;3.07;;;1.20;;
21593;SDS011;10959;51.328;7.322;2022-12-29T12:30:15;7.30;;;1.40;;
21593;SDS011;10959;51.328;7.322;2022-12-29T12:32:44;5.97;;;1.43;;
21593;SDS011;10959;51.328;7.322;2022-12-29T12:35:14;5.43;;;1.30;;
21593;SDS011;10959;51.328;7.322;2022-12-29T12:37:55;6.43;;;1.40;;
21593;SDS011;10959;51.328;7.322;2022-12-29T12:40:34;5.00;;;1.40;;
21593;SDS011;10959;51.328;7.322;2022-12-29T12:46:03;6.87;;;1.57;;
21593;SDS011;10959;51.328;7.322;2022-12-29T12:48:48;4.53;;;1.20;;
21593;SDS011;10959;51.328;7.322;2022-12-29T12:51:27;3.13;;;1.17;;
21593;SDS011;10959;51.328;7.322;2022-12-29T12:54:11;4.60;;;1.30;;
21593;SDS011;10959;51.328;7.322;2022-12-29T12:56:51;4.30;;;1.17;;
21593;SDS011;10959;51.328;7.322;2022-12-29T12:59:34;4.57;;;1.60;;
21593;SDS011;10959;51.328;7.322;2022-12-29T13:02:12;5.20;;;1.47;;
21593;SDS011;10959;51.328;7.322;2022-12-29T13:05:00;3.00;;;1.10;;
21593;SDS011;10959;51.328;7.322;2022-12-29T13:07:43;3.80;;;1.40;;
21593;SDS011;10959;51.328;7.322;2022-12-29T13:10:25;5.53;;;1.63;;
21593;SDS011;10959;51.328;7.322;2022-12-29T13:13:09;6.23;;;2.67;;
21593;SDS011;10959;51.328;7.322;2022-12-29T13:15:55;9.33;;;3.17;;
21593;SDS011;10959;51.328;7.322;2022-12-29T13:18:30;3.23;;;1.20;;
21593;SDS011;10959;51.328;7.322;2022-12-29T13:21:10;6.00;;;1.57;;
21593;SDS011;10959;51.328;7.322;2022-12-29T13:23:53;3.37;;;1.23;;
21593;SDS011;10959;51.328;7.322;2022-12-29T13:26:29;5.07;;;1.30;;
21593;SDS011;10959;51.328;7.322;2022-12-29T13:29:04;4.43;;;1.37;;
21593;SDS011;10959;51.328;7.322;2022-12-29T13:31:41;3.90;;;1.57;;
21593;SDS011;10959;51.328;7.322;2022-12-29T13:34:16;4.77;;;1.40;;
21593;SDS011;10959;51.328;7.322;2022-12-29T13:36:51;3.07;;;1.20;;
21593;SDS011;10959;51.328;7.322;2022-12-29T13:39:21;4.43;;;1.27;;
21593;SDS011;10959;51.328;7.322;2022-12-29T13:41:53;3.73;;;1.37;;
21593;SDS011;10959;51.328;7.322;2022-12-29T13:44:21;4.23;;;1.03;;
21593;SDS011;10959;51.328;7.322;2022-12-29T13:46:51;4.83;;;1.10;;
21593;SDS011;10959;51.328;7.322;2022-12-29T13:49:20;4.13;;;1.30;;
21593;SDS011;10959;51.328;7.322;2022-12-29T13:51:49;3.63;;;1.40;;
21593;SDS011;10959;51.328;7.322;2022-12-29T13:54:22;3.30;;;1.03;;
21593;SDS011;10959;51.328;7.322;2022-12-29T13:57:02;2.83;;;1.23;;
21593;SDS011;10959;51.328;7.322;2022-12-29T13:59:36;5.93;;;1.30;;
21593;SDS011;10959;51.328;7.322;2022-12-29T14:02:11;2.93;;;1.20;;
21593;SDS011;10959;51.328;7.322;2022-12-29T14:04:57;5.53;;;1.30;;
21593;SDS011;10959;51.328;7.322;2022-12-29T14:07:25;4.87;;;1.23;;
21593;SDS011;10959;51.328;7.322;2022-12-29T14:09:53;4.53;;;1.50;;
21593;SDS011;10959;51.328;7.322;2022-12-29T14:12:30;4.87;;;1.30;;
21593;SDS011;10959;51.328;7.322;2022-12-29T14:15:03;4.37;;;1.13;;
21593;SDS011;10959;51.328;7.322;2022-12-29T14:17:32;5.30;;;1.10;;
21593;SDS011;10959;51.328;7.322;2022-12-29T14:19:59;3.67;;;1.20;;
21593;SDS011;10959;51.328;7.322;2022-12-29T14:22:26;3.20;;;1.20;;
21593;SDS011;10959;51.328;7.322;2022-12-29T14:24:54;2.57;;;0.80;;
21593;SDS011;10959;51.328;7.322;2022-12-29T14:33:15;2.30;;;0.90;;
21593;SDS011;10959;51.328;7.322;2022-12-29T14:35:42;2.00;;;1.13;;
21593;SDS011;10959;51.328;7.322;2022-12-29T14:38:14;4.50;;;0.90;;
21593;SDS011;10959;51.328;7.322;2022-12-29T14:40:43;2.60;;;1.00;;
21593;SDS011;10959;51.328;7.322;2022-12-29T14:43:17;3.03;;;0.83;;
21593;SDS011;10959;51.328;7.322;2022-12-29T14:45:51;3.87;;;1.20;;
21593;SDS011;10959;51.328;7.322;2022-12-29T14:48:22;3.67;;;0.80;;
21593;SDS011;10959;51.328;7.322;2022-12-29T14:51:00;4.67;;;0.90;;
21593;SDS011;10959;51.328;7.322;2022-12-29T14:53:44;4.03;;;1.10;;
21593;SDS011;10959;51.328;7.322;2022-12-29T14:56:13;3.20;;;0.90;;
21593;SDS011;10959;51.328;7.322;2022-12-29T14:58:45;1.43;;;0.90;;
21593;SDS011;10959;51.328;7.322;2022-12-29T15:01:17;4.83;;;1.20;;
21593;SDS011;10959;51.328;7.322;2022-12-29T15:03:48;2.93;;;0.90;;
21593;SDS011;10959;51.328;7.322;2022-12-29T15:06:17;2.70;;;1.30;;
21593;SDS011;10959;51.328;7.322;2022-12-29T15:08:49;2.30;;;1.00;;
21593;SDS011;10959;51.328;7.322;2022-12-29T15:11:21;3.40;;;1.10;;
21593;SDS011;10959;51.328;7.322;2022-12-29T15:13:49;3.70;;;1.90;;
21593;SDS011;10959;51.328;7.322;2022-12-29T15:16:20;4.30;;;1.10;;
21593;SDS011;10959;51.328;7.322;2022-12-29T15:18:48;3.03;;;1.27;;
21593;SDS011;10959;51.328;7.322;2022-12-29T15:21:15;2.53;;;1.37;;
21593;SDS011;10959;51.328;7.322;2022-12-29T15:23:42;4.43;;;1.13;;
21593;SDS011;10959;51.328;7.322;2022-12-29T15:26:11;3.33;;;1.00;;
21593;SDS011;10959;51.328;7.322;2022-12-29T15:28:46;3.37;;;0.90;;